Time;durP1;ratioP1;P1;durP2;ratioP2;P2;SDS_P1;SDS_P2;PMS_P1;PMS_P2;Temp;Humidity;BMP_temperature;BMP_pressure;BME280_temperature;BME280_humidity;BME280_pressure;Samples;Min_cycle;Max_cycle;Signal;HPM_P1;HPM_P2
2024/01/13 00:01:52;;;;;;;88.70;35.90;;;3.60;69.00;;;;;;5094318;28;20389;-70
2024/01/13 00:04:18;;;;;;;77.17;36.40;;;3.60;69.60;;;;;;5094144;28;20412;-70
2024/01/13 00:06:43;;;;;;;77.80;36.20;;;3.60;69.70;;;;;;5092741;28;20815;-69
2024/01/13 00:09:09;;;;;;;83.97;37.97;;;3.70;68.70;;;;;;5092660;28;20902;-70
2024/01/13 00:11:35;;;;;;;78.13;37.78;;;3.70;68.00;;;;;;5092320;28;20443;-71
2024/01/13 00:14:00;;;;;;;85.00;37.38;;;3.80;67.50;;;;;;5092411;28;20392;-71
2024/01/13 00:16:26;;;;;;;78.30;37.70;;;3.70;67.90;;;;;;5092291;28;20460;-71
2024/01/13 00:18:51;;;;;;;88.43;39.77;;;3.80;67.50;;;;;;5090719;28;20441;-70
2024/01/13 00:21:17;;;;;;;79.50;38.40;;;3.70;68.10;;;;;;5092789;28;20422;-71
2024/01/13 00:23:43;;;;;;;89.60;38.50;;;3.60;69.00;;;;;;5092389;28;20394;-70
2024/01/13 00:26:08;;;;;;;84.00;37.87;;;3.60;69.80;;;;;;5092148;28;20381;-70
2024/01/13 00:28:34;;;;;;;79.15;38.33;;;3.60;68.80;;;;;;5073485;28;20382;-70
2024/01/13 00:30:59;;;;;;;77.68;35.92;;;3.60;69.10;;;;;;5091912;28;20390;-71
2024/01/13 00:33:25;;;;;;;82.88;37.67;;;3.70;68.60;;;;;;5092344;28;20941;-71
2024/01/13 00:35:50;;;;;;;79.63;39.17;;;3.80;67.30;;;;;;5092043;28;20392;-69
2024/01/13 00:38:16;;;;;;;80.15;37.03;;;3.80;67.60;;;;;;5091840;28;20489;-70
2024/01/13 00:40:42;;;;;;;82.75;38.97;;;3.70;67.00;;;;;;5092828;28;20406;-71
2024/01/13 00:43:08;;;;;;;81.53;36.87;;;3.70;67.10;;;;;;5093359;28;20386;-71
2024/01/13 00:45:34;;;;;;;77.40;37.90;;;3.80;67.40;;;;;;5093483;28;20382;-71
2024/01/13 00:48:00;;;;;;;69.43;36.28;;;3.70;67.30;;;;;;5093153;28;20755;-71
2024/01/13 00:50:26;;;;;;;84.03;37.33;;;3.60;68.50;;;;;;5093429;28;20412;-71
2024/01/13 00:52:51;;;;;;;80.33;37.20;;;3.70;69.20;;;;;;5094841;28;20378;-72
2024/01/13 00:55:17;;;;;;;93.67;38.07;;;3.60;68.20;;;;;;5094693;28;20485;-71
2024/01/13 00:57:43;;;;;;;86.93;37.30;;;3.60;68.00;;;;;;5093991;28;20413;-71
2024/01/13 01:00:09;;;;;;;86.32;38.65;;;3.60;68.60;;;;;;5094786;28;20653;-70
2024/01/13 01:02:34;;;;;;;80.57;37.63;;;3.60;67.80;;;;;;5094501;28;20424;-71
2024/01/13 01:05:00;;;;;;;77.53;36.03;;;3.70;67.50;;;;;;5094077;28;20951;-71
2024/01/13 01:07:25;;;;;;;81.23;36.50;;;3.80;66.40;;;;;;5093531;28;20780;-70
2024/01/13 01:09:51;;;;;;;78.33;35.77;;;3.70;66.70;;;;;;5092390;28;20944;-70
2024/01/13 01:12:16;;;;;;;83.70;35.00;;;3.70;67.80;;;;;;5093138;28;20713;-70
2024/01/13 01:14:42;;;;;;;80.43;35.23;;;3.70;68.10;;;;;;5092121;28;20382;-70
2024/01/13 01:17:07;;;;;;;71.70;35.43;;;3.60;68.50;;;;;;5091554;28;20398;-69
2024/01/13 01:19:33;;;;;;;79.87;36.40;;;3.50;69.60;;;;;;5090247;28;20443;-70
2024/01/13 01:21:58;;;;;;;79.80;36.27;;;3.50;70.00;;;;;;5090904;28;20393;-70
2024/01/13 01:24:24;;;;;;;74.57;34.63;;;3.60;70.30;;;;;;5090592;28;20401;-70
2024/01/13 01:26:51;;;;;;;71.85;34.70;;;3.60;69.60;;;;;;5090130;28;21526;-70
2024/01/13 01:29:17;;;;;;;70.80;33.63;;;3.70;69.50;;;;;;5090417;28;20440;-70
2024/01/13 01:31:42;;;;;;;72.57;34.87;;;3.70;69.00;;;;;;5090432;28;20513;-70
2024/01/13 01:34:08;;;;;;;73.50;35.30;;;3.70;69.20;;;;;;5090727;28;20393;-70
2024/01/13 01:36:33;;;;;;;67.43;32.73;;;3.70;69.60;;;;;;5091293;28;20412;-70
2024/01/13 01:38:59;;;;;;;66.90;32.90;;;3.70;70.10;;;;;;5090747;28;20466;-69
2024/01/13 01:41:25;;;;;;;61.20;29.60;;;3.80;67.90;;;;;;5090643;28;20417;-70
2024/01/13 01:43:51;;;;;;;63.75;31.38;;;3.90;66.40;;;;;;5090542;28;20378;-71
2024/01/13 01:46:19;;;;;;;67.67;31.77;;;3.90;65.20;;;;;;5090740;28;20844;-71
2024/01/13 01:48:45;;;;;;;60.03;30.02;;;4.00;64.40;;;;;;5090612;28;20453;-70
2024/01/13 01:51:13;;;;;;;64.43;31.45;;;4.00;64.60;;;;;;5072120;28;20438;-69
2024/01/13 01:53:40;;;;;;;65.60;31.40;;;4.00;63.70;;;;;;5090855;28;20446;-69
2024/01/13 01:56:11;;;;;;;71.00;32.13;;;3.90;65.00;;;;;;5090453;28;20556;-69
2024/01/13 01:58:38;;;;;;;62.88;31.83;;;3.90;65.00;;;;;;5090419;28;20403;-70
2024/01/13 02:01:07;;;;;;;70.85;32.42;;;4.00;63.70;;;;;;5090634;28;21057;-70
2024/01/13 02:03:34;;;;;;;66.60;32.47;;;4.00;63.80;;;;;;5090442;28;20380;-70
2024/01/13 02:06:02;;;;;;;74.50;33.40;;;3.90;64.90;;;;;;5090360;28;20386;-70
2024/01/13 02:08:28;;;;;;;69.20;33.63;;;3.80;65.40;;;;;;5090370;28;20396;-70
2024/01/13 02:10:53;;;;;;;69.22;31.85;;;3.70;66.50;;;;;;5090475;28;20504;-70
2024/01/13 02:13:19;;;;;;;66.80;32.97;;;3.80;65.80;;;;;;5090506;28;20935;-70
2024/01/13 02:15:44;;;;;;;70.20;32.80;;;3.80;65.70;;;;;;5090195;28;20809;-70
2024/01/13 02:18:10;;;;;;;74.40;34.17;;;3.80;65.30;;;;;;5090060;28;20401;-70
2024/01/13 02:20:35;;;;;;;79.53;35.60;;;3.80;65.30;;;;;;5090383;28;20390;-70
2024/01/13 02:23:01;;;;;;;70.60;35.00;;;3.80;65.20;;;;;;5090319;28;20526;-71
2024/01/13 02:25:26;;;;;;;68.20;33.63;;;3.80;64.90;;;;;;5066328;22;20437;-72
2024/01/13 02:27:52;;;;;;;81.50;35.10;;;3.80;65.30;;;;;;5051840;28;20385;-73
2024/01/13 02:30:17;;;;;;;80.22;36.08;;;3.80;65.30;;;;;;5050622;28;20389;-72
2024/01/13 02:32:43;;;;;;;77.28;35.97;;;3.80;65.30;;;;;;5050581;28;20382;-72
2024/01/13 02:35:09;;;;;;;72.03;34.80;;;3.80;65.50;;;;;;5050256;28;20389;-71
2024/01/13 02:37:34;;;;;;;74.70;34.83;;;3.80;65.80;;;;;;5053561;28;20425;-73
2024/01/13 02:40:00;;;;;;;74.57;34.95;;;3.80;65.90;;;;;;5054465;28;20902;-72
2024/01/13 02:42:28;;;;;;;71.35;34.60;;;3.80;66.20;;;;;;5037566;28;20382;-74
2024/01/13 02:44:54;;;;;;;74.43;35.47;;;3.90;65.00;;;;;;5058551;28;20382;-73
2024/01/13 02:47:29;;;;;;;78.27;34.93;;;3.80;64.70;;;;;;5059377;28;20421;-73
2024/01/13 02:49:54;;;;;;;73.70;35.75;;;3.80;64.90;;;;;;5059353;28;20386;-74
2024/01/13 02:52:20;;;;;;;79.80;36.88;;;3.80;64.80;;;;;;5058923;28;20492;-74
2024/01/13 02:54:46;;;;;;;78.07;35.75;;;3.80;65.30;;;;;;5059026;28;20385;-72
2024/01/13 02:57:12;;;;;;;80.18;35.05;;;3.80;65.20;;;;;;5058279;28;20408;-73
2024/01/13 02:59:37;;;;;;;74.00;35.07;;;3.70;65.70;;;;;;5059327;28;20393;-71
2024/01/13 03:02:03;;;;;;;77.03;35.57;;;3.80;65.70;;;;;;5041731;28;20381;-73
2024/01/13 03:04:28;;;;;;;69.45;33.78;;;3.70;65.50;;;;;;5058679;28;20373;-72
2024/01/13 03:06:54;;;;;;;72.03;32.30;;;3.70;65.30;;;;;;5055208;28;20392;-73
2024/01/13 03:09:19;;;;;;;67.35;31.42;;;3.80;65.20;;;;;;5036578;28;20385;-73
2024/01/13 03:11:45;;;;;;;63.95;30.38;;;3.80;64.60;;;;;;5053891;28;20425;-73
2024/01/13 03:14:11;;;;;;;66.22;31.13;;;3.80;63.30;;;;;;5054556;28;20389;-73
2024/01/13 03:16:36;;;;;;;67.53;30.97;;;3.90;63.40;;;;;;5055437;28;20417;-73
2024/01/13 03:19:02;;;;;;;63.20;30.77;;;4.00;61.40;;;;;;5053441;28;20412;-71
2024/01/13 03:21:27;;;;;;;63.00;30.20;;;3.90;62.30;;;;;;5053338;28;20396;-72
2024/01/13 03:23:53;;;;;;;65.83;32.30;;;3.80;64.10;;;;;;5053968;28;20868;-71
2024/01/13 03:26:18;;;;;;;61.47;30.57;;;3.80;64.60;;;;;;5053609;28;20397;-72
2024/01/13 03:28:44;;;;;;;58.90;29.02;;;3.70;65.00;;;;;;5055226;28;20438;-72
2024/01/13 03:31:10;;;;;;;62.47;28.67;;;3.70;65.20;;;;;;5055944;28;20389;-74
2024/01/13 03:33:36;;;;;;;58.07;29.10;;;3.70;65.60;;;;;;5056075;28;20490;-73
2024/01/13 03:36:02;;;;;;;62.78;29.27;;;3.80;64.50;;;;;;5056415;28;20393;-73
2024/01/13 03:38:27;;;;;;;57.72;27.48;;;3.90;63.00;;;;;;5056736;28;20405;-73
2024/01/13 03:40:53;;;;;;;58.33;27.10;;;4.10;61.40;;;;;;5036535;28;20432;-74
2024/01/13 03:43:18;;;;;;;60.17;27.43;;;4.10;61.30;;;;;;5053456;28;20452;-71
2024/01/13 03:45:44;;;;;;;56.90;27.47;;;4.10;60.70;;;;;;5053043;28;20968;-72
2024/01/13 03:48:09;;;;;;;59.73;27.57;;;4.00;61.70;;;;;;5035214;28;20393;-73
2024/01/13 03:50:35;;;;;;;58.80;28.07;;;4.10;61.60;;;;;;5053012;28;20421;-71
2024/01/13 03:53:01;;;;;;;58.13;27.77;;;4.10;60.40;;;;;;5053487;28;20435;-72
2024/01/13 03:55:26;;;;;;;62.40;27.90;;;4.10;60.40;;;;;;5053354;28;20382;-72
2024/01/13 03:57:52;;;;;;;59.53;28.67;;;4.00;61.10;;;;;;5052693;28;20883;-74
2024/01/13 04:00:19;;;;;;;58.03;28.88;;;3.90;61.70;;;;;;5052891;28;20872;-72
2024/01/13 04:02:44;;;;;;;59.83;29.20;;;3.90;62.10;;;;;;5052789;28;20820;-74
2024/01/13 04:05:10;;;;;;;52.67;28.10;;;4.00;61.90;;;;;;5052629;28;20402;-73
2024/01/13 04:07:36;;;;;;;56.77;29.00;;;3.90;61.70;;;;;;5053262;28;20389;-72
2024/01/13 04:10:01;;;;;;;60.05;28.63;;;3.90;61.70;;;;;;5052463;28;20402;-72
2024/01/13 04:12:27;;;;;;;55.85;27.60;;;3.90;62.40;;;;;;5052769;28;20385;-72
2024/01/13 04:14:53;;;;;;;59.07;28.57;;;3.80;63.40;;;;;;5052589;28;20432;-71
2024/01/13 04:17:18;;;;;;;53.70;27.50;;;3.80;63.80;;;;;;5053041;28;20386;-72
2024/01/13 04:19:44;;;;;;;59.50;27.90;;;4.00;62.20;;;;;;5052869;28;20419;-73
2024/01/13 04:22:09;;;;;;;60.87;27.57;;;4.00;62.00;;;;;;5052772;28;20860;-72
2024/01/13 04:24:35;;;;;;;56.00;26.50;;;4.00;61.60;;;;;;5053517;28;20389;-71
2024/01/13 04:27:00;;;;;;;56.53;26.35;;;3.80;63.30;;;;;;5054172;28;20894;-72
2024/01/13 04:29:26;;;;;;;51.42;26.23;;;3.80;63.90;;;;;;5053602;28;20984;-72
2024/01/13 04:31:51;;;;;;;54.53;25.85;;;3.80;64.30;;;;;;5037944;28;20389;-73
2024/01/13 04:34:17;;;;;;;47.85;25.02;;;3.90;63.20;;;;;;5054767;28;20385;-70
2024/01/13 04:36:43;;;;;;;47.45;24.25;;;4.00;61.50;;;;;;5052225;28;20389;-72
2024/01/13 04:39:08;;;;;;;54.60;24.98;;;3.90;62.70;;;;;;5051835;28;20405;-72
2024/01/13 04:41:34;;;;;;;51.67;24.15;;;3.90;63.20;;;;;;5052317;28;20386;-71
2024/01/13 04:43:59;;;;;;;44.28;23.10;;;4.00;62.40;;;;;;5052267;28;20794;-72
2024/01/13 04:46:25;;;;;;;46.83;22.20;;;3.90;61.60;;;;;;5034213;28;20477;-73
2024/01/13 04:48:50;;;;;;;46.40;22.30;;;4.00;61.20;;;;;;5051756;28;20389;-70
2024/01/13 04:51:16;;;;;;;42.53;21.87;;;4.00;60.90;;;;;;5052415;28;20385;-72
2024/01/13 04:53:42;;;;;;;43.30;20.73;;;4.10;60.50;;;;;;5053065;28;20386;-72
2024/01/13 04:56:07;;;;;;;49.60;21.10;;;4.10;59.70;;;;;;5053218;28;20430;-72
2024/01/13 04:58:33;;;;;;;43.63;22.40;;;4.10;59.70;;;;;;5052759;28;20492;-73
2024/01/13 05:00:59;;;;;;;38.42;20.65;;;4.10;59.70;;;;;;5055153;28;20900;-72
2024/01/13 05:03:24;;;;;;;49.45;22.58;;;4.10;59.60;;;;;;5037668;28;20869;-72
2024/01/13 05:05:50;;;;;;;40.22;21.05;;;4.00;59.80;;;;;;5055315;28;20456;-73
2024/01/13 05:08:15;;;;;;;42.13;22.20;;;4.00;60.20;;;;;;5055488;28;20389;-74
2024/01/13 05:10:41;;;;;;;42.85;20.95;;;4.00;60.10;;;;;;5055808;28;20400;-72
2024/01/13 05:13:06;;;;;;;43.37;21.57;;;4.00;59.40;;;;;;5055569;28;20392;-72
2024/01/13 05:15:32;;;;;;;45.60;20.40;;;4.20;58.00;;;;;;5054623;28;20477;-73
2024/01/13 05:17:57;;;;;;;37.23;20.27;;;4.10;58.50;;;;;;5054891;28;20405;-72
2024/01/13 05:20:23;;;;;;;43.80;20.10;;;4.10;57.90;;;;;;5055773;28;20729;-72
2024/01/13 05:22:48;;;;;;;41.33;20.43;;;4.20;57.40;;;;;;5054737;28;20381;-72
2024/01/13 05:25:14;;;;;;;38.97;19.57;;;4.20;57.70;;;;;;5056624;28;20393;-73
2024/01/13 05:27:40;;;;;;;38.90;18.90;;;4.20;56.30;;;;;;5057666;28;20717;-73
2024/01/13 05:30:07;;;;;;;39.75;18.88;;;4.20;56.10;;;;;;5057087;28;20385;-72
2024/01/13 05:32:34;;;;;;;36.03;19.23;;;4.20;55.80;;;;;;5056034;28;20385;-73
2024/01/13 05:34:59;;;;;;;36.67;17.95;;;4.30;55.70;;;;;;5055413;28;20914;-73
2024/01/13 05:37:25;;;;;;;34.00;18.30;;;4.30;55.20;;;;;;5055355;28;20409;-73
2024/01/13 05:39:50;;;;;;;33.37;18.40;;;4.20;55.70;;;;;;5056158;28;20495;-72
2024/01/13 05:42:16;;;;;;;34.80;17.80;;;4.20;55.60;;;;;;5056103;28;20421;-73
2024/01/13 05:44:42;;;;;;;38.67;18.60;;;4.30;55.40;;;;;;5053790;28;20472;-73
2024/01/13 05:47:09;;;;;;;34.67;18.73;;;4.20;55.30;;;;;;5033761;28;20792;-72
2024/01/13 05:49:34;;;;;;;32.55;18.27;;;4.20;55.60;;;;;;5051927;28;20425;-72
2024/01/13 05:52:00;;;;;;;35.47;19.75;;;4.20;55.70;;;;;;5051500;28;20729;-72
2024/01/13 05:54:25;;;;;;;36.55;19.65;;;4.20;55.70;;;;;;5062001;28;20388;-73
2024/01/13 05:56:51;;;;;;;39.13;20.05;;;4.20;55.40;;;;;;5062543;28;20404;-74
2024/01/13 05:59:16;;;;;;;37.70;20.50;;;4.20;55.60;;;;;;5054815;28;20404;-72
2024/01/13 06:01:42;;;;;;;37.33;20.70;;;4.20;55.80;;;;;;5051019;28;20454;-75
2024/01/13 06:04:08;;;;;;;37.43;20.70;;;4.20;55.60;;;;;;5050707;28;20381;-73
2024/01/13 06:06:33;;;;;;;36.60;20.30;;;4.20;55.20;;;;;;5051268;28;20420;-73
2024/01/13 06:08:59;;;;;;;34.53;19.87;;;4.20;55.20;;;;;;5051198;28;20408;-73
2024/01/13 06:11:24;;;;;;;37.03;20.70;;;4.20;55.30;;;;;;5050803;28;20393;-73
2024/01/13 06:13:50;;;;;;;34.70;20.00;;;4.20;55.90;;;;;;5050812;28;20386;-72
2024/01/13 06:16:15;;;;;;;38.10;19.87;;;4.20;56.30;;;;;;5050754;28;20385;-72
2024/01/13 06:18:41;;;;;;;36.05;20.10;;;4.10;56.00;;;;;;5036837;28;20405;-72
2024/01/13 06:21:07;;;;;;;35.03;20.65;;;4.10;56.70;;;;;;5054818;28;20902;-72
2024/01/13 06:23:32;;;;;;;35.88;21.30;;;4.10;56.40;;;;;;5055172;28;20377;-73
2024/01/13 06:25:58;;;;;;;37.05;20.55;;;4.00;56.80;;;;;;5054400;28;20578;-71
2024/01/13 06:28:23;;;;;;;34.72;20.35;;;4.10;57.10;;;;;;5054132;28;20412;-71
2024/01/13 06:30:49;;;;;;;37.10;21.27;;;4.20;56.10;;;;;;5054511;28;20878;-73
2024/01/13 06:33:15;;;;;;;38.37;20.20;;;4.10;55.90;;;;;;5054240;28;20442;-71
2024/01/13 06:35:40;;;;;;;34.75;19.73;;;4.10;56.80;;;;;;5054387;28;20423;-72
2024/01/13 06:38:06;;;;;;;37.70;21.60;;;4.10;57.10;;;;;;5054082;28;20405;-70
2024/01/13 06:40:31;;;;;;;40.70;21.58;;;4.20;56.60;;;;;;5054250;28;20918;-72
2024/01/13 06:42:57;;;;;;;34.85;19.83;;;4.20;56.30;;;;;;5053923;28;20385;-72
2024/01/13 06:45:23;;;;;;;36.58;19.50;;;4.20;55.70;;;;;;5053879;28;20389;-72
2024/01/13 06:47:48;;;;;;;31.65;18.33;;;4.20;55.80;;;;;;5053927;28;20464;-72
2024/01/13 06:50:14;;;;;;;36.95;20.67;;;4.30;55.30;;;;;;5053983;28;20428;-74
2024/01/13 06:52:39;;;;;;;38.00;20.73;;;4.30;55.20;;;;;;5053703;28;20413;-72
2024/01/13 06:55:07;;;;;;;33.20;20.37;;;4.30;55.00;;;;;;5053222;28;20389;-73
2024/01/13 06:57:33;;;;;;;34.70;19.87;;;4.30;55.10;;;;;;5035838;28;20512;-71
2024/01/13 06:59:58;;;;;;;35.03;19.25;;;4.30;55.20;;;;;;5053242;28;20440;-72
2024/01/13 07:02:24;;;;;;;34.58;19.23;;;4.30;55.40;;;;;;5053210;28;20385;-72
2024/01/13 07:04:50;;;;;;;36.45;19.85;;;4.30;55.80;;;;;;5036413;28;20392;-75
2024/01/13 07:07:16;;;;;;;35.90;19.07;;;4.30;56.40;;;;;;5055024;28;20875;-72
2024/01/13 07:09:41;;;;;;;29.30;17.00;;;4.30;56.50;;;;;;5054867;28;20859;-72
2024/01/13 07:12:07;;;;;;;33.80;17.97;;;4.30;57.40;;;;;;5055246;28;20409;-73
2024/01/13 07:14:32;;;;;;;33.47;18.70;;;4.20;57.90;;;;;;5054301;28;20385;-72
2024/01/13 07:16:58;;;;;;;29.90;18.00;;;4.30;58.10;;;;;;5053206;28;20416;-74
2024/01/13 07:19:23;;;;;;;30.92;17.88;;;4.30;58.10;;;;;;5052835;28;20394;-72
2024/01/13 07:21:49;;;;;;;35.75;20.92;;;4.20;58.80;;;;;;5034927;28;20799;-72
2024/01/13 07:24:14;;;;;;;36.88;20.98;;;4.10;60.20;;;;;;5052807;28;20381;-74
2024/01/13 07:26:40;;;;;;;36.30;20.92;;;4.00;60.90;;;;;;5053190;28;20398;-73
2024/01/13 07:29:06;;;;;;;38.13;21.20;;;4.00;61.70;;;;;;5051847;28;20478;-72
2024/01/13 07:31:32;;;;;;;38.92;22.52;;;4.10;61.60;;;;;;5053319;28;20752;-73
2024/01/13 07:33:57;;;;;;;38.55;21.70;;;4.00;61.80;;;;;;5053260;28;20456;-72
2024/01/13 07:36:23;;;;;;;42.97;23.98;;;4.10;61.80;;;;;;5053137;28;20381;-71
2024/01/13 07:38:48;;;;;;;41.92;23.65;;;4.10;62.40;;;;;;5052710;28;20432;-71
2024/01/13 07:41:14;;;;;;;43.30;23.23;;;4.10;62.10;;;;;;5052576;28;20755;-71
2024/01/13 07:43:39;;;;;;;40.70;23.80;;;4.20;60.70;;;;;;5052808;28;20747;-70
2024/01/13 07:46:05;;;;;;;40.27;22.83;;;4.10;61.20;;;;;;5052394;28;20397;-72
2024/01/13 07:48:31;;;;;;;40.10;22.90;;;4.10;61.70;;;;;;5052543;28;20798;-72
2024/01/13 07:50:56;;;;;;;42.30;23.80;;;4.10;62.80;;;;;;5052201;28;20811;-71
2024/01/13 07:53:22;;;;;;;36.93;23.07;;;4.10;63.30;;;;;;5052690;28;20420;-72
2024/01/13 07:55:47;;;;;;;44.57;24.20;;;4.10;63.50;;;;;;5052983;28;20482;-72
2024/01/13 07:58:13;;;;;;;37.22;22.23;;;4.10;63.10;;;;;;5034494;28;20410;-72
2024/01/13 08:00:39;;;;;;;43.65;24.15;;;4.20;63.30;;;;;;5052599;28;20756;-72
2024/01/13 08:03:04;;;;;;;42.75;23.52;;;4.20;62.80;;;;;;5052622;28;20516;-71
2024/01/13 08:05:31;;;;;;;43.33;23.60;;;4.20;61.70;;;;;;5052053;28;20404;-71
2024/01/13 08:07:57;;;;;;;43.55;24.88;;;4.20;62.40;;;;;;5034250;28;20389;-73
2024/01/13 08:10:23;;;;;;;41.00;23.90;;;4.20;62.10;;;;;;5052619;28;20493;-73
2024/01/13 08:12:48;;;;;;;48.90;24.83;;;4.20;61.00;;;;;;5052059;28;20385;-73
2024/01/13 08:15:14;;;;;;;47.03;26.50;;;4.30;59.90;;;;;;5051932;28;20752;-72
2024/01/13 08:17:40;;;;;;;43.67;25.47;;;4.30;58.20;;;;;;5051873;28;20431;-73
2024/01/13 08:20:06;;;;;;;39.90;23.80;;;4.30;58.40;;;;;;5051757;28;20393;-72
2024/01/13 08:22:32;;;;;;;47.00;26.17;;;4.40;57.10;;;;;;5052909;28;20397;-72
2024/01/13 08:24:57;;;;;;;43.03;24.38;;;4.40;57.10;;;;;;5072926;22;20818;-71
2024/01/13 08:27:23;;;;;;;42.83;23.92;;;4.40;57.30;;;;;;5113290;28;20388;-71
2024/01/13 08:29:49;;;;;;;42.53;25.77;;;4.40;57.60;;;;;;5113531;28;20463;-70
2024/01/13 08:32:15;;;;;;;46.65;25.23;;;4.40;56.80;;;;;;5113045;28;20404;-71
2024/01/13 08:34:40;;;;;;;44.20;24.88;;;4.50;56.50;;;;;;5113050;28;20429;-70
2024/01/13 08:37:06;;;;;;;47.45;25.13;;;4.50;56.20;;;;;;5112808;28;20372;-70
2024/01/13 08:39:32;;;;;;;38.75;24.30;;;4.50;56.00;;;;;;5111734;28;20947;-71
2024/01/13 08:41:57;;;;;;;41.30;24.37;;;4.50;56.00;;;;;;5112575;28;20438;-71
2024/01/13 08:44:23;;;;;;;42.13;24.10;;;4.50;56.30;;;;;;5113159;28;20390;-70
2024/01/13 08:46:48;;;;;;;43.03;24.10;;;4.50;55.90;;;;;;5111890;28;20388;-70
2024/01/13 08:49:14;;;;;;;42.83;23.97;;;4.60;55.80;;;;;;5111597;28;20497;-69
2024/01/13 08:51:39;;;;;;;39.30;22.90;;;4.60;56.00;;;;;;5112649;28;20468;-71
2024/01/13 08:54:06;;;;;;;39.23;23.03;;;4.60;56.50;;;;;;5112651;28;20409;-70
2024/01/13 08:56:34;;;;;;;40.60;22.20;;;4.60;56.20;;;;;;5111961;28;20415;-71
2024/01/13 08:59:00;;;;;;;36.25;21.70;;;4.50;56.30;;;;;;5093466;28;20432;-70
2024/01/13 09:01:25;;;;;;;37.15;21.08;;;4.60;56.00;;;;;;5093911;28;20396;-71
2024/01/13 09:03:51;;;;;;;35.33;21.40;;;4.60;56.40;;;;;;5112407;28;20433;-70
2024/01/13 09:06:16;;;;;;;40.20;23.30;;;4.60;56.40;;;;;;5112053;28;20364;-70
2024/01/13 09:08:42;;;;;;;36.53;21.87;;;4.60;56.40;;;;;;5111282;28;20912;-70
2024/01/13 09:11:09;;;;;;;37.50;22.10;;;4.60;56.30;;;;;;5111329;28;20380;-69
2024/01/13 09:13:34;;;;;;;33.75;20.60;;;4.50;57.10;;;;;;5111951;28;20525;-71
2024/01/13 09:16:00;;;;;;;36.55;21.40;;;4.50;56.90;;;;;;5111274;28;20879;-70
2024/01/13 09:18:25;;;;;;;36.92;20.52;;;4.70;56.00;;;;;;5113236;28;20392;-71
2024/01/13 09:20:51;;;;;;;32.72;19.98;;;4.70;55.70;;;;;;5113152;28;20441;-70
2024/01/13 09:23:17;;;;;;;39.20;21.38;;;4.60;56.20;;;;;;5111274;28;20400;-70
2024/01/13 09:25:42;;;;;;;31.37;19.60;;;4.70;56.10;;;;;;5110923;28;20401;-71
2024/01/13 09:28:09;;;;;;;31.57;19.73;;;4.80;54.50;;;;;;5110898;28;20476;-71
2024/01/13 09:30:35;;;;;;;32.63;19.65;;;4.80;53.80;;;;;;5110960;28;20471;-70
2024/01/13 09:33:01;;;;;;;32.30;19.33;;;4.80;54.90;;;;;;5104262;28;20416;-70
2024/01/13 09:35:30;;;;;;;33.40;19.50;;;4.70;54.20;;;;;;5092927;28;20843;-70
2024/01/13 09:37:59;;;;;;;31.77;19.40;;;4.70;53.80;;;;;;5094803;28;20388;-70
2024/01/13 09:40:28;;;;;;;30.08;18.45;;;4.70;54.40;;;;;;5111012;28;20385;-69
2024/01/13 09:43:09;;;;;;;31.33;18.88;;;4.70;53.90;;;;;;5110337;28;20724;-69
2024/01/13 09:45:35;;;;;;;31.95;19.48;;;4.70;54.10;;;;;;5100246;28;20459;-69
2024/01/13 09:48:07;;;;;;;29.35;18.17;;;4.80;54.20;;;;;;5087563;28;20390;-69
2024/01/13 09:50:32;;;;;;;33.20;18.52;;;4.80;53.00;;;;;;5087662;28;20719;-70
2024/01/13 09:53:03;;;;;;;26.20;16.92;;;4.90;52.50;;;;;;5094890;28;20388;-70
2024/01/13 09:55:30;;;;;;;28.70;17.60;;;4.90;53.00;;;;;;5108050;28;20371;-70
2024/01/13 09:57:55;;;;;;;33.40;18.17;;;5.00;52.20;;;;;;5103688;28;20410;-69
2024/01/13 10:00:21;;;;;;;28.10;17.83;;;5.10;52.20;;;;;;5088132;28;20524;-70
2024/01/13 10:02:46;;;;;;;26.57;17.03;;;5.20;51.20;;;;;;5088520;28;20784;-69
2024/01/13 10:05:12;;;;;;;30.07;17.30;;;5.30;50.40;;;;;;5088584;28;20427;-70
2024/01/13 10:07:43;;;;;;;29.58;16.50;;;5.30;51.60;;;;;;5099840;28;20381;-70
2024/01/13 10:10:09;;;;;;;24.48;16.02;;;5.30;51.10;;;;;;5092368;28;20400;-70
2024/01/13 10:12:36;;;;;;;26.13;15.40;;;5.30;51.70;;;;;;5099578;28;20386;-71
2024/01/13 10:15:11;;;;;;;25.80;15.87;;;5.20;52.10;;;;;;5087501;28;20689;-70
2024/01/13 10:17:37;;;;;;;25.13;16.40;;;5.10;52.80;;;;;;5093523;28;20754;-71
2024/01/13 10:20:03;;;;;;;25.90;15.85;;;5.00;53.90;;;;;;5085230;28;20394;-70
2024/01/13 10:22:29;;;;;;;24.00;15.45;;;4.90;54.50;;;;;;5100219;28;20392;-70
2024/01/13 10:24:55;;;;;;;25.50;15.60;;;5.00;54.60;;;;;;5095613;28;20463;-70
2024/01/13 10:27:21;;;;;;;25.08;15.57;;;4.90;54.90;;;;;;5104942;28;20692;-70
2024/01/13 10:29:48;;;;;;;24.73;15.33;;;4.90;54.30;;;;;;5108654;28;20723;-71
2024/01/13 10:32:15;;;;;;;21.98;13.70;;;5.00;54.00;;;;;;5107709;28;20388;-70
2024/01/13 10:34:49;;;;;;;20.65;13.88;;;5.00;53.70;;;;;;5094320;28;20389;-72
2024/01/13 10:37:14;;;;;;;21.02;14.07;;;5.00;53.90;;;;;;5095627;28;20393;-70
2024/01/13 10:39:43;;;;;;;22.33;13.40;;;5.00;53.80;;;;;;5090188;28;20405;-71
2024/01/13 10:42:15;;;;;;;19.95;13.77;;;5.00;53.80;;;;;;5102062;28;20384;-70
2024/01/13 10:44:43;;;;;;;20.75;13.32;;;5.00;54.00;;;;;;5083883;28;20732;-70
2024/01/13 10:47:14;;;;;;;21.05;14.15;;;5.00;54.70;;;;;;5089516;28;20450;-72
2024/01/13 10:49:42;;;;;;;22.23;13.40;;;5.00;55.40;;;;;;5100882;28;20393;-70
2024/01/13 10:52:13;;;;;;;19.75;12.93;;;5.10;55.60;;;;;;5103954;28;20388;-70
2024/01/13 10:54:40;;;;;;;20.38;12.10;;;5.10;55.10;;;;;;5099100;28;20390;-71
2024/01/13 10:57:06;;;;;;;22.27;12.50;;;5.10;54.90;;;;;;5087573;28;20725;-72
2024/01/13 10:59:35;;;;;;;21.03;13.03;;;5.10;56.00;;;;;;5087300;28;20405;-72
2024/01/13 11:02:01;;;;;;;22.55;13.85;;;5.10;55.80;;;;;;5087739;28;20485;-71
2024/01/13 11:04:27;;;;;;;17.92;12.40;;;5.10;56.80;;;;;;5089627;28;20387;-71
2024/01/13 11:06:54;;;;;;;26.15;13.57;;;5.00;57.20;;;;;;5106376;28;20404;-73
2024/01/13 11:09:20;;;;;;;22.67;13.60;;;5.10;58.10;;;;;;5111657;28;20388;-72
2024/01/13 11:11:59;;;;;;;17.50;12.00;;;5.10;57.20;;;;;;5106490;28;20408;-72
2024/01/13 11:14:34;;;;;;;18.63;12.38;;;5.20;56.50;;;;;;5093753;28;20400;-72
2024/01/13 11:17:00;;;;;;;19.52;12.88;;;5.20;57.30;;;;;;5099223;28;20392;-71
2024/01/13 11:19:26;;;;;;;20.75;12.70;;;5.00;57.60;;;;;;5109575;28;20404;-72
2024/01/13 11:21:52;;;;;;;20.90;12.43;;;5.00;58.60;;;;;;5108025;28;20505;-72
2024/01/13 11:24:19;;;;;;;19.47;12.90;;;4.90;58.40;;;;;;5097476;28;20465;-72
2024/01/13 11:26:49;;;;;;;25.25;12.00;;;4.90;58.50;;;;;;5092490;28;20737;-71
2024/01/13 11:29:24;;;;;;;20.00;13.20;;;4.90;59.10;;;;;;5098126;28;20440;-71
2024/01/13 11:31:57;;;;;;;22.85;13.10;;;4.80;59.80;;;;;;5093613;28;20420;-71
2024/01/13 11:34:23;;;;;;;18.98;12.65;;;4.80;60.40;;;;;;5091560;28;20426;-73
2024/01/13 11:36:51;;;;;;;23.60;14.10;;;4.80;59.40;;;;;;5091104;28;20428;-71
2024/01/13 11:39:18;;;;;;;23.10;13.70;;;4.90;61.10;;;;;;5092917;28;20565;-71
2024/01/13 11:41:45;;;;;;;23.88;13.80;;;4.80;60.10;;;;;;5090473;28;20385;-71
2024/01/13 11:44:24;;;;;;;25.60;15.00;;;4.80;61.10;;;;;;5093175;28;20518;-72
2024/01/13 11:47:05;;;;;;;24.30;14.57;;;4.80;60.80;;;;;;5090733;28;20484;-72
2024/01/13 11:49:33;;;;;;;28.27;15.57;;;4.90;60.40;;;;;;5091913;28;20392;-72
2024/01/13 11:52:02;;;;;;;27.85;15.23;;;4.80;61.00;;;;;;5092296;28;20482;-72
2024/01/13 11:54:29;;;;;;;26.45;15.15;;;4.90;61.20;;;;;;5093354;28;20454;-72
2024/01/13 11:56:57;;;;;;;25.52;15.32;;;4.80;61.40;;;;;;5091006;28;20382;-73
2024/01/13 11:59:23;;;;;;;24.02;15.10;;;4.90;60.10;;;;;;5108523;28;20418;-73
2024/01/13 12:01:49;;;;;;;29.48;15.18;;;4.90;60.50;;;;;;5110769;28;20377;-72
2024/01/13 12:04:16;;;;;;;28.00;16.13;;;4.90;59.90;;;;;;5071806;28;20451;-73
2024/01/13 12:06:43;;;;;;;26.80;16.70;;;4.90;60.40;;;;;;5101142;28;20748;-71
2024/01/13 12:09:11;;;;;;;25.38;14.88;;;4.90;61.00;;;;;;5102376;28;20797;-72
2024/01/13 12:11:38;;;;;;;27.07;15.00;;;4.90;59.70;;;;;;5087882;28;20764;-72
2024/01/13 12:14:04;;;;;;;29.08;16.33;;;4.90;59.20;;;;;;5100655;28;20377;-71
2024/01/13 12:16:31;;;;;;;29.70;15.70;;;4.80;59.70;;;;;;5090844;28;20820;-73
2024/01/13 12:18:56;;;;;;;22.73;14.70;;;4.80;60.20;;;;;;5104767;28;20412;-72
2024/01/13 12:21:22;;;;;;;22.77;15.20;;;4.80;60.90;;;;;;5112213;28;20380;-73
2024/01/13 12:23:48;;;;;;;25.23;16.08;;;4.90;60.70;;;;;;5113858;28;20848;-73
2024/01/13 12:26:14;;;;;;;26.83;16.83;;;4.90;59.70;;;;;;5115897;28;20441;-73
2024/01/13 12:28:40;;;;;;;23.85;15.43;;;4.90;59.80;;;;;;5117369;28;20463;-71
2024/01/13 12:31:06;;;;;;;29.35;16.23;;;4.80;60.40;;;;;;5107571;28;20767;-71